sensor_id;sensor_type;location;lat;lon;timestamp;pressure;altitude;pressure_sealevel;temperature;humidity
23619;BME280;18207;32.078;34.818;2022-11-23T00:00:04;101214.56;;;27.33;42.51
23619;BME280;18207;32.078;34.818;2022-11-23T00:02:35;101212.91;;;27.32;42.58
23619;BME280;18207;32.078;34.818;2022-11-23T00:05:09;101207.66;;;27.31;42.46
23619;BME280;18207;32.078;34.818;2022-11-23T00:07:40;101207.19;;;27.29;42.68
23619;BME280;18207;32.078;34.818;2022-11-23T00:10:10;101212.03;;;27.28;42.57
23619;BME280;18207;32.078;34.818;2022-11-23T00:12:41;101205.94;;;27.26;42.69
23619;BME280;18207;32.078;34.818;2022-11-23T00:15:13;101205.13;;;27.26;42.52
23619;BME280;18207;32.078;34.818;2022-11-23T00:17:46;101209.16;;;27.25;42.46
23619;BME280;18207;32.078;34.818;2022-11-23T00:20:19;101199.38;;;27.22;42.58
23619;BME280;18207;32.078;34.818;2022-11-23T00:22:51;101192.03;;;27.18;42.57
23619;BME280;18207;32.078;34.818;2022-11-23T00:25:21;101200.44;;;27.14;42.76
23619;BME280;18207;32.078;34.818;2022-11-23T00:27:51;101208.81;;;27.11;42.28
23619;BME280;18207;32.078;34.818;2022-11-23T00:30:22;101207.91;;;27.07;42.73
23619;BME280;18207;32.078;34.818;2022-11-23T00:32:54;101205.84;;;27.04;42.52
23619;BME280;18207;32.078;34.818;2022-11-23T00:35:27;101207.72;;;27.00;42.70
23619;BME280;18207;32.078;34.818;2022-11-23T00:37:57;101204.00;;;26.96;42.77
23619;BME280;18207;32.078;34.818;2022-11-23T00:40:27;101204.75;;;26.93;42.83
23619;BME280;18207;32.078;34.818;2022-11-23T00:42:58;101209.94;;;26.91;42.86
23619;BME280;18207;32.078;34.818;2022-11-23T00:45:28;101211.50;;;26.88;42.83
23619;BME280;18207;32.078;34.818;2022-11-23T00:47:59;101217.84;;;26.85;42.97
23619;BME280;18207;32.078;34.818;2022-11-23T00:50:31;101201.66;;;26.83;42.74
23619;BME280;18207;32.078;34.818;2022-11-23T00:53:03;101200.03;;;26.82;42.91
23619;BME280;18207;32.078;34.818;2022-11-23T00:55:34;101199.22;;;26.81;42.93
23619;BME280;18207;32.078;34.818;2022-11-23T00:58:04;101187.13;;;26.81;42.94
23619;BME280;18207;32.078;34.818;2022-11-23T01:00:34;101194.75;;;26.80;42.91
23619;BME280;18207;32.078;34.818;2022-11-23T01:03:04;101201.94;;;26.78;42.99
23619;BME280;18207;32.078;34.818;2022-11-23T01:05:38;101192.69;;;26.77;42.79
23619;BME280;18207;32.078;34.818;2022-11-23T01:08:09;101199.84;;;26.75;43.01
23619;BME280;18207;32.078;34.818;2022-11-23T01:10:40;101204.69;;;26.74;42.92
23619;BME280;18207;32.078;34.818;2022-11-23T01:13:12;101197.03;;;26.75;42.89
23619;BME280;18207;32.078;34.818;2022-11-23T01:15:49;101194.66;;;26.77;43.02
23619;BME280;18207;32.078;34.818;2022-11-23T01:18:20;101199.50;;;26.76;42.91
23619;BME280;18207;32.078;34.818;2022-11-23T01:20:53;101192.69;;;26.77;43.03
23619;BME280;18207;32.078;34.818;2022-11-23T01:23:24;101186.66;;;26.79;43.07
23619;BME280;18207;32.078;34.818;2022-11-23T01:25:54;101190.75;;;26.81;43.04
23619;BME280;18207;32.078;34.818;2022-11-23T01:28:24;101193.56;;;26.81;42.99
23619;BME280;18207;32.078;34.818;2022-11-23T01:31:02;101192.00;;;26.83;42.89
23619;BME280;18207;32.078;34.818;2022-11-23T01:33:33;101194.03;;;26.83;42.66
23619;BME280;18207;32.078;34.818;2022-11-23T01:36:12;101188.84;;;26.85;42.88
23619;BME280;18207;32.078;34.818;2022-11-23T01:38:44;101183.19;;;26.85;42.89
23619;BME280;18207;32.078;34.818;2022-11-23T01:41:18;101188.47;;;26.86;42.89
23619;BME280;18207;32.078;34.818;2022-11-23T01:43:50;101186.81;;;26.85;42.96
23619;BME280;18207;32.078;34.818;2022-11-23T01:46:21;101186.47;;;26.87;42.90
23619;BME280;18207;32.078;34.818;2022-11-23T01:48:55;101177.19;;;26.86;42.85
23619;BME280;18207;32.078;34.818;2022-11-23T01:51:33;101182.03;;;26.86;42.77
23619;BME280;18207;32.078;34.818;2022-11-23T01:54:08;101184.00;;;26.85;42.85
23619;BME280;18207;32.078;34.818;2022-11-23T01:56:44;101180.00;;;26.86;42.93
23619;BME280;18207;32.078;34.818;2022-11-23T01:59:18;101180.84;;;26.87;42.94
23619;BME280;18207;32.078;34.818;2022-11-23T02:01:49;101169.91;;;26.85;42.93
23619;BME280;18207;32.078;34.818;2022-11-23T02:04:26;101169.91;;;26.85;42.88
23619;BME280;18207;32.078;34.818;2022-11-23T02:07:02;101172.25;;;26.83;42.90
23619;BME280;18207;32.078;34.818;2022-11-23T02:09:36;101167.38;;;26.81;42.91
23619;BME280;18207;32.078;34.818;2022-11-23T02:12:10;101171.38;;;26.80;42.83
23619;BME280;18207;32.078;34.818;2022-11-23T02:14:42;101169.28;;;26.77;42.76
23619;BME280;18207;32.078;34.818;2022-11-23T02:17:14;101166.38;;;26.73;42.99
23619;BME280;18207;32.078;34.818;2022-11-23T02:19:56;101157.84;;;26.70;42.84
23619;BME280;18207;32.078;34.818;2022-11-23T02:22:45;101156.59;;;26.67;42.97
23619;BME280;18207;32.078;34.818;2022-11-23T02:25:29;101158.50;;;26.63;42.52
23619;BME280;18207;32.078;34.818;2022-11-23T02:28:06;101151.94;;;26.59;42.92
23619;BME280;18207;32.078;34.818;2022-11-23T02:30:38;101152.25;;;26.54;42.95
23619;BME280;18207;32.078;34.818;2022-11-23T02:33:10;101145.34;;;26.52;43.11
23619;BME280;18207;32.078;34.818;2022-11-23T02:35:48;101148.16;;;26.52;42.88
23619;BME280;18207;32.078;34.818;2022-11-23T02:38:20;101157.34;;;26.49;42.90
23619;BME280;18207;32.078;34.818;2022-11-23T02:40:52;101149.69;;;26.49;43.06
23619;BME280;18207;32.078;34.818;2022-11-23T02:43:25;101144.41;;;26.48;43.04
23619;BME280;18207;32.078;34.818;2022-11-23T02:46:01;101140.44;;;26.49;42.81
23619;BME280;18207;32.078;34.818;2022-11-23T02:48:33;101144.88;;;26.50;42.91
23619;BME280;18207;32.078;34.818;2022-11-23T02:51:04;101146.53;;;26.51;42.94
23619;BME280;18207;32.078;34.818;2022-11-23T02:53:34;101158.25;;;26.53;42.82
23619;BME280;18207;32.078;34.818;2022-11-23T02:56:04;101142.94;;;26.54;42.85
23619;BME280;18207;32.078;34.818;2022-11-23T02:58:36;101149.03;;;26.56;43.02
23619;BME280;18207;32.078;34.818;2022-11-23T03:01:07;101155.53;;;26.56;43.09
23619;BME280;18207;32.078;34.818;2022-11-23T03:03:37;101149.41;;;26.54;42.52
23619;BME280;18207;32.078;34.818;2022-11-23T03:06:08;101142.88;;;26.50;42.67
23619;BME280;18207;32.078;34.818;2022-11-23T03:08:39;101147.63;;;26.46;42.71
23619;BME280;18207;32.078;34.818;2022-11-23T03:11:09;101148.72;;;26.42;42.76
23619;BME280;18207;32.078;34.818;2022-11-23T03:13:41;101146.59;;;26.39;42.81
23619;BME280;18207;32.078;34.818;2022-11-23T03:16:12;101148.94;;;26.37;42.87
23619;BME280;18207;32.078;34.818;2022-11-23T03:18:43;101159.41;;;26.36;42.85
23619;BME280;18207;32.078;34.818;2022-11-23T03:21:14;101152.16;;;26.35;42.87
23619;BME280;18207;32.078;34.818;2022-11-23T03:23:44;101153.41;;;26.38;42.81
23619;BME280;18207;32.078;34.818;2022-11-23T03:26:15;101148.94;;;26.37;43.00
23619;BME280;18207;32.078;34.818;2022-11-23T03:28:49;101153.41;;;26.38;42.92
23619;BME280;18207;32.078;34.818;2022-11-23T03:31:20;101152.22;;;26.39;42.89
23619;BME280;18207;32.078;34.818;2022-11-23T03:33:50;101155.84;;;26.39;43.05
23619;BME280;18207;32.078;34.818;2022-11-23T03:36:20;101146.25;;;26.40;42.77
23619;BME280;18207;32.078;34.818;2022-11-23T03:38:51;101152.72;;;26.41;42.96
23619;BME280;18207;32.078;34.818;2022-11-23T03:41:21;101153.53;;;26.41;42.69
23619;BME280;18207;32.078;34.818;2022-11-23T03:43:54;101157.19;;;26.42;42.84
23619;BME280;18207;32.078;34.818;2022-11-23T03:46:24;101156.34;;;26.41;42.96
23619;BME280;18207;32.078;34.818;2022-11-23T03:48:55;101164.00;;;26.41;42.88
23619;BME280;18207;32.078;34.818;2022-11-23T03:51:25;101161.47;;;26.39;42.66
23619;BME280;18207;32.078;34.818;2022-11-23T03:53:55;101161.84;;;26.38;42.77
23619;BME280;18207;32.078;34.818;2022-11-23T03:56:26;101165.41;;;26.35;42.72
23619;BME280;18207;32.078;34.818;2022-11-23T03:58:59;101159.34;;;26.33;42.71
23619;BME280;18207;32.078;34.818;2022-11-23T04:01:30;101177.78;;;26.30;43.02
23619;BME280;18207;32.078;34.818;2022-11-23T04:04:00;101172.50;;;26.29;42.93
23619;BME280;18207;32.078;34.818;2022-11-23T04:06:31;101172.50;;;26.29;42.99
23619;BME280;18207;32.078;34.818;2022-11-23T04:09:01;101175.31;;;26.29;42.90
23619;BME280;18207;32.078;34.818;2022-11-23T04:11:32;101172.50;;;26.29;42.95
23619;BME280;18207;32.078;34.818;2022-11-23T04:14:04;101176.97;;;26.30;42.93
23619;BME280;18207;32.078;34.818;2022-11-23T04:16:34;101184.25;;;26.31;42.79
23619;BME280;18207;32.078;34.818;2022-11-23T04:19:04;101183.06;;;26.32;42.85
23619;BME280;18207;32.078;34.818;2022-11-23T04:21:34;101188.69;;;26.32;42.76
23619;BME280;18207;32.078;34.818;2022-11-23T04:24:06;101193.88;;;26.30;42.77
23619;BME280;18207;32.078;34.818;2022-11-23T04:26:36;101188.63;;;26.28;42.83
23619;BME280;18207;32.078;34.818;2022-11-23T04:29:09;101188.16;;;26.26;42.67
23619;BME280;18207;32.078;34.818;2022-11-23T04:31:40;101193.78;;;26.26;42.96
23619;BME280;18207;32.078;34.818;2022-11-23T04:34:10;101200.22;;;26.27;42.92
23619;BME280;18207;32.078;34.818;2022-11-23T04:36:40;101201.06;;;26.27;43.33
23619;BME280;18207;32.078;34.818;2022-11-23T04:39:11;101209.94;;;26.29;42.96
23619;BME280;18207;32.078;34.818;2022-11-23T04:41:42;101209.13;;;26.29;42.93
23619;BME280;18207;32.078;34.818;2022-11-23T04:44:15;101213.59;;;26.30;42.68
23619;BME280;18207;32.078;34.818;2022-11-23T04:46:48;101217.22;;;26.30;42.69
23619;BME280;18207;32.078;34.818;2022-11-23T04:49:19;101215.69;;;26.33;42.97
23619;BME280;18207;32.078;34.818;2022-11-23T04:51:50;101216.50;;;26.33;42.97
23619;BME280;18207;32.078;34.818;2022-11-23T04:54:20;101218.16;;;26.34;42.99
23619;BME280;18207;32.078;34.818;2022-11-23T04:56:51;101217.06;;;26.39;43.18
23619;BME280;18207;32.078;34.818;2022-11-23T04:59:23;101224.91;;;26.45;43.14
23619;BME280;18207;32.078;34.818;2022-11-23T05:01:53;101220.28;;;26.53;43.38
23619;BME280;18207;32.078;34.818;2022-11-23T05:04:24;101206.81;;;26.62;43.03
23619;BME280;18207;32.078;34.818;2022-11-23T05:06:54;101212.25;;;26.70;43.51
23619;BME280;18207;32.078;34.818;2022-11-23T05:09:25;101220.50;;;26.79;43.46
23619;BME280;18207;32.078;34.818;2022-11-23T05:11:56;101213.84;;;26.86;43.55
23619;BME280;18207;32.078;34.818;2022-11-23T05:14:28;101213.59;;;26.91;43.50
23619;BME280;18207;32.078;34.818;2022-11-23T05:16:59;101209.66;;;26.96;43.08
23619;BME280;18207;32.078;34.818;2022-11-23T05:19:30;101208.91;;;26.99;43.18
23619;BME280;18207;32.078;34.818;2022-11-23T05:22:01;101211.84;;;27.02;43.16
23619;BME280;18207;32.078;34.818;2022-11-23T05:24:31;101209.84;;;27.03;43.23
23619;BME280;18207;32.078;34.818;2022-11-23T05:27:02;101218.78;;;27.05;43.18
23619;BME280;18207;32.078;34.818;2022-11-23T05:29:35;101218.38;;;27.06;43.08
23619;BME280;18207;32.078;34.818;2022-11-23T05:32:06;101216.38;;;27.07;43.01
23619;BME280;18207;32.078;34.818;2022-11-23T05:34:36;101214.00;;;27.09;43.03
23619;BME280;18207;32.078;34.818;2022-11-23T05:37:12;101206.38;;;27.09;42.97
23619;BME280;18207;32.078;34.818;2022-11-23T05:39:43;101215.28;;;27.11;42.82
23619;BME280;18207;32.078;34.818;2022-11-23T05:42:14;101214.53;;;27.14;43.04
23619;BME280;18207;32.078;34.818;2022-11-23T05:44:47;101215.44;;;27.18;42.92
23619;BME280;18207;32.078;34.818;2022-11-23T05:47:17;101227.72;;;27.26;43.13
23619;BME280;18207;32.078;34.818;2022-11-23T05:49:47;101215.84;;;27.36;43.26
23619;BME280;18207;32.078;34.818;2022-11-23T05:52:18;101226.69;;;27.53;43.70
23619;BME280;18207;32.078;34.818;2022-11-23T05:54:48;101214.59;;;27.71;43.71
23619;BME280;18207;32.078;34.818;2022-11-23T05:57:19;101227.88;;;27.89;43.84
23619;BME280;18207;32.078;34.818;2022-11-23T05:59:51;101221.00;;;28.09;43.78
23619;BME280;18207;32.078;34.818;2022-11-23T06:02:23;101227.47;;;28.29;43.67
23619;BME280;18207;32.078;34.818;2022-11-23T06:04:53;101226.22;;;28.49;44.22
23619;BME280;18207;32.078;34.818;2022-11-23T06:07:23;101216.06;;;28.70;43.85
23619;BME280;18207;32.078;34.818;2022-11-23T06:09:53;101221.72;;;28.92;44.17
23619;BME280;18207;32.078;34.818;2022-11-23T06:12:27;101226.94;;;29.16;44.02
23619;BME280;18207;32.078;34.818;2022-11-23T06:14:59;101223.66;;;29.40;44.39
23619;BME280;18207;32.078;34.818;2022-11-23T06:17:30;101233.69;;;29.63;44.38
23619;BME280;18207;32.078;34.818;2022-11-23T06:20:01;101237.66;;;29.88;44.33
23619;BME280;18207;32.078;34.818;2022-11-23T06:22:31;101236.75;;;30.14;44.39
23619;BME280;18207;32.078;34.818;2022-11-23T06:25:02;101227.66;;;30.38;43.79
23619;BME280;18207;32.078;34.818;2022-11-23T06:27:32;101226.28;;;30.61;44.36
23619;BME280;18207;32.078;34.818;2022-11-23T06:30:07;101230.53;;;30.84;43.87
23619;BME280;18207;32.078;34.818;2022-11-23T06:32:37;101225.88;;;31.06;43.92
23619;BME280;18207;32.078;34.818;2022-11-23T06:35:08;101227.25;;;31.29;43.44
23619;BME280;18207;32.078;34.818;2022-11-23T06:37:38;101222.06;;;31.48;43.24
23619;BME280;18207;32.078;34.818;2022-11-23T06:40:11;101228.28;;;31.68;43.18
23619;BME280;18207;32.078;34.818;2022-11-23T06:42:41;101230.38;;;31.85;43.50
23619;BME280;18207;32.078;34.818;2022-11-23T06:45:14;101223.53;;;32.03;43.03
23619;BME280;18207;32.078;34.818;2022-11-23T06:47:44;101221.97;;;32.20;42.77
23619;BME280;18207;32.078;34.818;2022-11-23T06:50:15;101218.75;;;32.38;43.27
23619;BME280;18207;32.078;34.818;2022-11-23T06:52:46;101221.22;;;32.54;42.38
23619;BME280;18207;32.078;34.818;2022-11-23T06:55:17;101223.28;;;32.67;42.78
23619;BME280;18207;32.078;34.818;2022-11-23T06:57:48;101211.88;;;32.78;42.42
23619;BME280;18207;32.078;34.818;2022-11-23T07:00:21;101205.75;;;32.93;41.94
23619;BME280;18207;32.078;34.818;2022-11-23T07:02:53;101202.47;;;33.09;41.81
23619;BME280;18207;32.078;34.818;2022-11-23T07:05:24;101200.00;;;33.24;41.72
23619;BME280;18207;32.078;34.818;2022-11-23T07:07:55;101202.41;;;33.40;42.29
23619;BME280;18207;32.078;34.818;2022-11-23T07:10:27;101198.69;;;33.57;41.58
23619;BME280;18207;32.078;34.818;2022-11-23T07:13:03;101208.81;;;33.72;41.99
23619;BME280;18207;32.078;34.818;2022-11-23T07:15:36;101203.88;;;33.86;41.77
23619;BME280;18207;32.078;34.818;2022-11-23T07:18:08;101203.00;;;33.96;41.00
23619;BME280;18207;32.078;34.818;2022-11-23T07:20:41;101202.53;;;34.04;40.62
23619;BME280;18207;32.078;34.818;2022-11-23T07:23:11;101194.75;;;34.15;40.60
23619;BME280;18207;32.078;34.818;2022-11-23T07:25:42;101198.34;;;34.26;40.49
23619;BME280;18207;32.078;34.818;2022-11-23T07:28:13;101188.50;;;34.34;40.85
23619;BME280;18207;32.078;34.818;2022-11-23T07:30:48;101189.63;;;34.44;40.48
23619;BME280;18207;32.078;34.818;2022-11-23T07:33:19;101181.44;;;34.49;39.84
23619;BME280;18207;32.078;34.818;2022-11-23T07:35:53;101183.03;;;34.57;39.64
23619;BME280;18207;32.078;34.818;2022-11-23T07:38:23;101173.19;;;34.62;40.08
23619;BME280;18207;32.078;34.818;2022-11-23T07:40:53;101161.72;;;34.69;40.15
23619;BME280;18207;32.078;34.818;2022-11-23T07:43:38;101157.56;;;34.77;39.98
23619;BME280;18207;32.078;34.818;2022-11-23T07:46:10;101156.22;;;34.88;40.13
23619;BME280;18207;32.078;34.818;2022-11-23T07:48:43;101148.72;;;35.01;40.21
23619;BME280;18207;32.078;34.818;2022-11-23T07:51:27;101144.88;;;35.18;39.92
23619;BME280;18207;32.078;34.818;2022-11-23T07:53:59;101143.50;;;35.33;40.08
23619;BME280;18207;32.078;34.818;2022-11-23T07:56:32;101144.09;;;35.51;40.62
23619;BME280;18207;32.078;34.818;2022-11-23T07:59:05;101138.16;;;35.68;39.99
23619;BME280;18207;32.078;34.818;2022-11-23T08:01:38;101140.69;;;35.89;40.64
23619;BME280;18207;32.078;34.818;2022-11-23T08:04:11;101131.81;;;36.10;40.71
23619;BME280;18207;32.078;34.818;2022-11-23T08:06:41;101129.78;;;36.33;40.29
23619;BME280;18207;32.078;34.818;2022-11-23T08:09:12;101130.66;;;36.57;40.00
23619;BME280;18207;32.078;34.818;2022-11-23T08:11:44;101121.22;;;36.79;40.21
23619;BME280;18207;32.078;34.818;2022-11-23T08:14:14;101126.13;;;37.01;39.99
23619;BME280;18207;32.078;34.818;2022-11-23T08:16:52;101114.16;;;37.26;39.69
23619;BME280;18207;32.078;34.818;2022-11-23T08:19:22;101109.63;;;37.48;39.65
23619;BME280;18207;32.078;34.818;2022-11-23T08:21:52;101103.75;;;37.70;39.35
23619;BME280;18207;32.078;34.818;2022-11-23T08:24:23;101099.88;;;37.96;38.75
23619;BME280;18207;32.078;34.818;2022-11-23T08:26:56;101088.63;;;38.21;38.30
23619;BME280;18207;32.078;34.818;2022-11-23T08:29:28;101086.81;;;38.43;37.80
23619;BME280;18207;32.078;34.818;2022-11-23T08:32:01;101074.38;;;38.62;37.46
23619;BME280;18207;32.078;34.818;2022-11-23T08:34:34;101068.38;;;38.72;36.94
23619;BME280;18207;32.078;34.818;2022-11-23T08:37:08;101063.53;;;38.69;36.13
23619;BME280;18207;32.078;34.818;2022-11-23T08:39:39;101056.53;;;38.55;35.44
23619;BME280;18207;32.078;34.818;2022-11-23T08:42:12;101052.06;;;38.38;35.33
23619;BME280;18207;32.078;34.818;2022-11-23T08:44:41;101063.66;;;38.18;34.50
23619;BME280;18207;32.078;34.818;2022-11-23T08:47:15;101054.31;;;37.98;34.65
23619;BME280;18207;32.078;34.818;2022-11-23T08:49:47;101047.44;;;37.76;34.17
23619;BME280;18207;32.078;34.818;2022-11-23T08:52:17;101045.16;;;37.52;33.85
23619;BME280;18207;32.078;34.818;2022-11-23T08:54:47;101045.22;;;37.29;33.69
23619;BME280;18207;32.078;34.818;2022-11-23T08:57:24;101039.97;;;37.08;33.30
23619;BME280;18207;32.078;34.818;2022-11-23T08:59:54;101039.16;;;36.88;33.49
23619;BME280;18207;32.078;34.818;2022-11-23T09:02:26;101032.16;;;36.70;33.15
23619;BME280;18207;32.078;34.818;2022-11-23T09:04:57;101019.84;;;36.50;33.42
23619;BME280;18207;32.078;34.818;2022-11-23T09:07:28;101023.41;;;36.35;33.43
23619;BME280;18207;32.078;34.818;2022-11-23T09:09:59;101020.84;;;36.17;33.33
23619;BME280;18207;32.078;34.818;2022-11-23T09:12:30;101015.81;;;36.02;32.80
23619;BME280;18207;32.078;34.818;2022-11-23T09:15:00;101009.47;;;35.87;33.11
23619;BME280;18207;32.078;34.818;2022-11-23T09:17:33;100997.84;;;35.75;32.83
23619;BME280;18207;32.078;34.818;2022-11-23T09:20:05;100999.75;;;35.59;33.23
23619;BME280;18207;32.078;34.818;2022-11-23T09:22:37;100993.41;;;35.44;32.84
23619;BME280;18207;32.078;34.818;2022-11-23T09:25:08;100989.16;;;35.29;32.76
23619;BME280;18207;32.078;34.818;2022-11-23T09:27:38;100985.31;;;35.13;32.62
23619;BME280;18207;32.078;34.818;2022-11-23T09:30:10;100984.66;;;34.98;33.08
23619;BME280;18207;32.078;34.818;2022-11-23T09:32:43;100973.78;;;34.87;33.01
23619;BME280;18207;32.078;34.818;2022-11-23T09:35:13;100970.25;;;34.76;32.54
23619;BME280;18207;32.078;34.818;2022-11-23T09:37:46;100973.63;;;34.67;32.51
23619;BME280;18207;32.078;34.818;2022-11-23T09:40:17;100962.34;;;34.57;33.17
23619;BME280;18207;32.078;34.818;2022-11-23T09:43:21;100948.13;;;34.46;32.57
23619;BME280;18207;32.078;34.818;2022-11-23T09:46:08;100947.47;;;34.35;32.55
23619;BME280;18207;32.078;34.818;2022-11-23T09:49:00;100934.94;;;34.26;32.92
23619;BME280;18207;32.078;34.818;2022-11-23T09:51:39;100923.63;;;34.15;32.43
23619;BME280;18207;32.078;34.818;2022-11-23T09:54:22;100919.63;;;34.06;32.61
23619;BME280;18207;32.078;34.818;2022-11-23T09:56:56;100912.41;;;33.95;33.05
23619;BME280;18207;32.078;34.818;2022-11-23T09:59:40;100899.88;;;33.85;32.44
23619;BME280;18207;32.078;34.818;2022-11-23T10:02:23;100897.53;;;33.77;32.48
23619;BME280;18207;32.078;34.818;2022-11-23T10:04:59;100887.41;;;33.69;33.12
23619;BME280;18207;32.078;34.818;2022-11-23T10:07:47;100883.81;;;33.58;33.01
23619;BME280;18207;32.078;34.818;2022-11-23T10:10:36;100861.53;;;33.46;32.47
23619;BME280;18207;32.078;34.818;2022-11-23T10:13:26;100862.44;;;33.36;32.46
23619;BME280;18207;32.078;34.818;2022-11-23T10:16:19;100859.25;;;33.27;32.38
23619;BME280;18207;32.078;34.818;2022-11-23T10:19:00;100851.19;;;33.18;32.54
23619;BME280;18207;32.078;34.818;2022-11-23T10:21:45;100844.72;;;33.11;32.54
23619;BME280;18207;32.078;34.818;2022-11-23T10:24:26;100834.16;;;33.05;32.87
23619;BME280;18207;32.078;34.818;2022-11-23T10:27:07;100830.97;;;32.99;33.08
23619;BME280;18207;32.078;34.818;2022-11-23T10:29:42;100823.66;;;32.95;32.95
23619;BME280;18207;32.078;34.818;2022-11-23T10:32:29;100822.91;;;32.87;32.82
23619;BME280;18207;32.078;34.818;2022-11-23T10:35:10;100811.97;;;32.79;32.78
23619;BME280;18207;32.078;34.818;2022-11-23T10:37:43;100820.16;;;32.70;33.17
23619;BME280;18207;32.078;34.818;2022-11-23T10:40:18;100808.44;;;32.61;32.90
23619;BME280;18207;32.078;34.818;2022-11-23T10:42:56;100811.31;;;32.50;33.23
23619;BME280;18207;32.078;34.818;2022-11-23T10:45:31;100803.66;;;32.40;32.99
23619;BME280;18207;32.078;34.818;2022-11-23T10:48:03;100809.38;;;32.33;33.03
23619;BME280;18207;32.078;34.818;2022-11-23T10:50:35;100802.09;;;32.25;33.32
23619;BME280;18207;32.078;34.818;2022-11-23T10:53:22;100800.09;;;32.19;33.30
23619;BME280;18207;32.078;34.818;2022-11-23T10:55:58;100792.41;;;32.13;33.19
23619;BME280;18207;32.078;34.818;2022-11-23T10:58:44;100782.66;;;32.07;33.13
23619;BME280;18207;32.078;34.818;2022-11-23T11:01:18;100784.72;;;31.99;33.56
23619;BME280;18207;32.078;34.818;2022-11-23T11:03:53;100782.69;;;31.93;33.77
23619;BME280;18207;32.078;34.818;2022-11-23T11:06:26;100783.16;;;31.84;33.62
23619;BME280;18207;32.078;34.818;2022-11-23T11:09:03;100776.69;;;31.73;33.88
23619;BME280;18207;32.078;34.818;2022-11-23T11:11:47;100764.53;;;31.62;33.97
23619;BME280;18207;32.078;34.818;2022-11-23T11:14:22;100755.22;;;31.55;33.79
23619;BME280;18207;32.078;34.818;2022-11-23T11:16:55;100762.50;;;31.52;34.02
23619;BME280;18207;32.078;34.818;2022-11-23T11:19:29;100749.94;;;31.50;33.95
23619;BME280;18207;32.078;34.818;2022-11-23T11:22:03;100753.19;;;31.45;33.79
23619;BME280;18207;32.078;34.818;2022-11-23T11:24:56;100753.63;;;31.40;34.28
23619;BME280;18207;32.078;34.818;2022-11-23T11:27:31;100754.03;;;31.32;34.23
23619;BME280;18207;32.078;34.818;2022-11-23T11:30:08;100748.38;;;31.25;34.78
23619;BME280;18207;32.078;34.818;2022-11-23T11:32:56;100743.09;;;31.20;34.55
23619;BME280;18207;32.078;34.818;2022-11-23T11:35:32;100735.41;;;31.17;34.26
23619;BME280;18207;32.078;34.818;2022-11-23T11:38:12;100737.84;;;31.15;34.65
23619;BME280;18207;32.078;34.818;2022-11-23T11:40:50;100732.97;;;31.05;34.41
23619;BME280;18207;32.078;34.818;2022-11-23T11:43:27;100732.56;;;30.96;34.86
23619;BME280;18207;32.078;34.818;2022-11-23T11:46:13;100731.72;;;30.88;34.95
23619;BME280;18207;32.078;34.818;2022-11-23T11:49:04;100732.16;;;30.83;35.20
23619;BME280;18207;32.078;34.818;2022-11-23T11:51:40;100728.50;;;30.79;35.21
23619;BME280;18207;32.078;34.818;2022-11-23T11:54:21;100719.56;;;30.77;35.43
23619;BME280;18207;32.078;34.818;2022-11-23T11:57:03;100720.38;;;30.74;35.14
23619;BME280;18207;32.078;34.818;2022-11-23T11:59:42;100720.00;;;30.72;35.02
23619;BME280;18207;32.078;34.818;2022-11-23T12:02:21;100709.84;;;30.71;35.06
23619;BME280;18207;32.078;34.818;2022-11-23T12:05:07;100710.25;;;30.66;35.12
23619;BME280;18207;32.078;34.818;2022-11-23T12:08:03;100715.13;;;30.59;35.12
23619;BME280;18207;32.078;34.818;2022-11-23T12:10:41;100715.50;;;30.57;35.21
23619;BME280;18207;32.078;34.818;2022-11-23T12:13:18;100712.66;;;30.57;35.35
23619;BME280;18207;32.078;34.818;2022-11-23T12:15:58;100711.47;;;30.58;35.74
23619;BME280;18207;32.078;34.818;2022-11-23T12:18:58;100715.91;;;30.59;35.58
23619;BME280;18207;32.078;34.818;2022-11-23T12:22:05;100715.50;;;30.57;35.33
23619;BME280;18207;32.078;34.818;2022-11-23T12:24:58;100715.94;;;30.56;35.81
23619;BME280;18207;32.078;34.818;2022-11-23T12:27:42;100717.13;;;30.51;35.90
23619;BME280;18207;32.078;34.818;2022-11-23T12:30:25;100725.66;;;30.48;35.66
23619;BME280;18207;32.078;34.818;2022-11-23T12:33:45;100719.91;;;30.41;36.05
23619;BME280;18207;32.078;34.818;2022-11-23T12:36:44;100722.75;;;30.38;35.96
23619;BME280;18207;32.078;34.818;2022-11-23T12:40:02;100724.38;;;30.35;36.33
23619;BME280;18207;32.078;34.818;2022-11-23T12:42:41;100723.16;;;30.33;35.99
23619;BME280;18207;32.078;34.818;2022-11-23T12:45:30;100717.88;;;30.31;36.09
23619;BME280;18207;32.078;34.818;2022-11-23T12:48:24;100727.19;;;30.25;36.04
23619;BME280;18207;32.078;34.818;2022-11-23T12:51:08;100725.94;;;30.19;36.18
23619;BME280;18207;32.078;34.818;2022-11-23T12:54:00;100719.88;;;30.13;36.37
23619;BME280;18207;32.078;34.818;2022-11-23T12:57:02;100726.72;;;30.05;36.81
23619;BME280;18207;32.078;34.818;2022-11-23T12:59:45;100727.13;;;30.00;36.37
23619;BME280;18207;32.078;34.818;2022-11-23T13:09:56;100728.16;;;29.68;36.69
23619;BME280;18207;32.078;34.818;2022-11-23T13:16:19;100736.66;;;29.61;37.04
23619;BME280;18207;32.078;34.818;2022-11-23T13:19:16;100727.72;;;29.59;37.11
23619;BME280;18207;32.078;34.818;2022-11-23T13:21:55;100722.88;;;29.56;37.40
23619;BME280;18207;32.078;34.818;2022-11-23T13:24:29;100719.63;;;29.54;37.33
23619;BME280;18207;32.078;34.818;2022-11-23T13:27:42;100719.59;;;29.51;37.22
23619;BME280;18207;32.078;34.818;2022-11-23T13:30:36;100720.81;;;29.50;36.98